Time;durP1;ratioP1;P1;durP2;ratioP2;P2;SDS_P1;SDS_P2;PMS_P1;PMS_P2;Temp;Humidity;BMP_temperature;BMP_pressure;BME280_temperature;BME280_humidity;BME280_pressure;Samples;Min_cycle;Max_cycle;Signal;HPM_P1;HPM_P2
2022/01/02 00:01:09;;;;;;;12.07;6.47;;;12.40;99.90;;;;;;5053023;28;20021;-75
2022/01/02 00:03:38;;;;;;;21.02;7.07;;;12.40;99.90;;;;;;5053357;28;20092;-75
2022/01/02 00:06:04;;;;;;;14.95;7.00;;;12.40;99.90;;;;;;5051405;28;20036;-74
2022/01/02 00:08:41;;;;;;;20.92;7.03;;;12.40;99.90;;;;;;5053165;28;20393;-74
2022/01/02 00:11:11;;;;;;;17.80;6.55;;;12.40;99.90;;;;;;5052837;28;20033;-74
2022/01/02 00:13:45;;;;;;;20.63;7.25;;;12.40;99.90;;;;;;5053378;28;20368;-73
2022/01/02 00:16:14;;;;;;;15.63;6.45;;;12.30;99.90;;;;;;5052942;28;20393;-73
2022/01/02 00:18:48;;;;;;;18.10;6.85;;;12.30;99.90;;;;;;5052950;28;20025;-74
2022/01/02 00:21:16;;;;;;;17.80;6.93;;;12.30;99.90;;;;;;5052996;28;20031;-73
2022/01/02 00:24:02;;;;;;;14.70;6.50;;;12.30;99.90;;;;;;5052699;28;20040;-74
2022/01/02 00:26:41;;;;;;;19.48;6.90;;;12.30;99.90;;;;;;5052607;28;20104;-74
2022/01/02 00:29:07;;;;;;;19.75;6.35;;;12.20;99.90;;;;;;5052929;28;20033;-74
2022/01/02 00:31:34;;;;;;;19.52;6.88;;;12.30;99.90;;;;;;5052330;28;20047;-75
2022/01/02 00:34:00;;;;;;;21.42;6.85;;;12.30;99.90;;;;;;5052742;28;20021;-74
2022/01/02 00:36:27;;;;;;;18.48;6.63;;;12.30;99.90;;;;;;5052499;28;20023;-74
2022/01/02 00:38:53;;;;;;;20.27;6.47;;;12.30;99.90;;;;;;5052511;28;20033;-73
2022/01/02 00:41:25;;;;;;;20.00;6.78;;;12.40;99.90;;;;;;5052738;28;20021;-74
2022/01/02 00:44:32;;;;;;;21.20;6.40;;;12.40;99.90;;;;;;5052392;28;20503;-74
2022/01/02 00:47:16;;;;;;;19.52;6.65;;;12.40;99.90;;;;;;4970914;28;20043;-74
2022/01/02 00:49:55;;;;;;;20.77;6.70;;;12.40;99.90;;;;;;4970987;28;20043;-74
2022/01/02 00:52:21;;;;;;;19.73;6.28;;;12.40;99.90;;;;;;4970902;28;20491;-74
2022/01/02 00:54:47;;;;;;;13.75;6.15;;;12.40;99.90;;;;;;4970726;28;20407;-74
2022/01/02 00:57:17;;;;;;;17.90;6.90;;;12.50;99.90;;;;;;4970563;28;20035;-74
2022/01/02 00:59:58;;;;;;;16.63;6.25;;;12.40;99.90;;;;;;4970699;28;20041;-74
2022/01/02 01:02:32;;;;;;;17.83;6.47;;;12.50;99.90;;;;;;4970523;28;20050;-74
2022/01/02 01:05:00;;;;;;;14.95;5.85;;;12.50;99.90;;;;;;4970576;28;20485;-74
2022/01/02 01:07:27;;;;;;;18.95;6.22;;;12.50;99.90;;;;;;4970189;28;20039;-75
2022/01/02 01:09:55;;;;;;;14.45;6.20;;;12.50;99.90;;;;;;4970439;28;20035;-74
2022/01/02 01:12:21;;;;;;;23.23;6.13;;;12.50;99.90;;;;;;4970419;28;20026;-74
2022/01/02 01:14:47;;;;;;;20.90;6.82;;;12.50;99.90;;;;;;4970219;28;20125;-74
2022/01/02 01:17:14;;;;;;;14.98;6.13;;;12.50;99.90;;;;;;4970209;28;20406;-73
2022/01/02 01:19:40;;;;;;;19.92;7.00;;;12.50;99.90;;;;;;4970142;28;20023;-74
2022/01/02 01:22:06;;;;;;;16.95;7.13;;;12.50;99.90;;;;;;5000192;28;20112;-74
2022/01/02 01:24:34;;;;;;;15.52;6.78;;;12.50;99.90;;;;;;5051622;28;20068;-74
2022/01/02 01:27:01;;;;;;;21.65;6.20;;;12.40;99.90;;;;;;5051345;28;20021;-73
2022/01/02 01:29:27;;;;;;;15.23;6.32;;;12.40;99.90;;;;;;5051677;28;20425;-74
2022/01/02 01:31:53;;;;;;;16.30;5.70;;;12.40;99.90;;;;;;5051317;28;20025;-74
2022/01/02 01:34:18;;;;;;;16.77;5.70;;;12.40;99.90;;;;;;5051066;28;20028;-74
2022/01/02 01:36:44;;;;;;;22.10;5.50;;;12.40;99.90;;;;;;5051208;28;20027;-74
2022/01/02 01:39:09;;;;;;;16.08;5.03;;;12.50;99.90;;;;;;5050863;28;20484;-73
2022/01/02 01:41:38;;;;;;;15.38;5.40;;;12.60;99.90;;;;;;5051326;28;20098;-73
2022/01/02 01:46:38;;;;;;;16.80;5.82;;;12.60;99.90;;;;;;5051110;28;20078;-74
2022/01/02 01:49:16;;;;;;;20.83;5.80;;;12.60;99.90;;;;;;5051299;28;20029;-74
2022/01/02 01:51:43;;;;;;;18.05;5.32;;;12.60;99.90;;;;;;5051083;28;20029;-74
2022/01/02 01:54:08;;;;;;;17.10;5.07;;;12.70;99.90;;;;;;5051081;28;20491;-74
2022/01/02 01:56:34;;;;;;;15.77;5.10;;;12.70;99.90;;;;;;5050755;28;20017;-74
2022/01/02 01:58:59;;;;;;;18.50;5.68;;;12.80;99.90;;;;;;5033077;28;20028;-73
2022/01/02 02:01:25;;;;;;;16.02;4.70;;;12.80;99.90;;;;;;5050757;28;20021;-74
2022/01/02 02:03:51;;;;;;;13.40;4.18;;;12.90;99.90;;;;;;5050857;28;20358;-74
2022/01/02 02:06:17;;;;;;;13.45;4.20;;;12.90;99.90;;;;;;5050979;28;20065;-73
2022/01/02 02:08:43;;;;;;;12.63;4.18;;;13.00;99.90;;;;;;5050561;28;20048;-73
2022/01/02 02:11:08;;;;;;;19.48;4.72;;;13.00;99.90;;;;;;5050153;28;20028;-74
2022/01/02 02:13:37;;;;;;;12.43;4.57;;;13.10;99.90;;;;;;5050498;28;20333;-74
2022/01/02 02:16:02;;;;;;;17.50;5.15;;;13.10;99.90;;;;;;5050303;28;20100;-74
2022/01/02 02:18:28;;;;;;;14.88;4.40;;;13.20;99.90;;;;;;5050376;28;20078;-74
2022/01/02 02:20:53;;;;;;;18.70;5.03;;;13.20;99.90;;;;;;5050682;28;20021;-74
2022/01/02 02:23:19;;;;;;;17.25;4.45;;;13.20;99.90;;;;;;5050247;28;20495;-74
2022/01/02 02:25:45;;;;;;;17.42;4.35;;;13.20;99.90;;;;;;5049047;28;20036;-74
2022/01/02 02:28:13;;;;;;;16.33;4.70;;;13.20;99.90;;;;;;5050844;28;20025;-74
2022/01/02 02:30:41;;;;;;;14.25;4.35;;;13.30;99.90;;;;;;5050430;28;20219;-73
2022/01/02 02:33:08;;;;;;;14.10;4.00;;;13.30;99.90;;;;;;5055773;28;20050;-73
2022/01/02 02:35:36;;;;;;;18.73;4.70;;;13.30;99.90;;;;;;5070202;28;20029;-74
2022/01/02 02:38:03;;;;;;;14.55;4.10;;;13.30;99.90;;;;;;5070259;28;20024;-74
2022/01/02 02:40:30;;;;;;;18.52;3.90;;;13.30;99.90;;;;;;5070211;28;20052;-75
2022/01/02 02:42:58;;;;;;;16.33;4.10;;;13.40;99.90;;;;;;5070343;28;20024;-74
2022/01/02 02:51:05;;;;;;;10.93;3.80;;;13.40;99.90;;;;;;5070460;28;20060;-75
2022/01/02 02:53:32;;;;;;;15.35;3.70;;;13.50;99.90;;;;;;5070258;28;20077;-74
2022/01/02 02:55:59;;;;;;;15.88;3.78;;;13.50;99.90;;;;;;5069958;28;20392;-73
2022/01/02 03:01:00;;;;;;;15.18;3.78;;;13.50;99.90;;;;;;5070288;28;20052;-73
2022/01/02 03:03:26;;;;;;;16.35;3.80;;;13.60;99.90;;;;;;5070040;28;20055;-74
2022/01/02 03:05:52;;;;;;;11.48;3.60;;;13.60;99.90;;;;;;5069986;28;20029;-74
2022/01/02 03:08:17;;;;;;;15.45;3.63;;;13.60;99.90;;;;;;5069855;28;20099;-74
2022/01/02 03:10:43;;;;;;;14.98;3.78;;;13.60;99.90;;;;;;5069992;28;20027;-74
2022/01/02 03:13:08;;;;;;;18.65;4.00;;;13.60;99.90;;;;;;5070145;28;20020;-74
2022/01/02 03:15:34;;;;;;;17.08;3.88;;;13.60;99.90;;;;;;5069963;28;20020;-73
2022/01/02 03:18:00;;;;;;;12.80;3.60;;;13.60;99.90;;;;;;5069955;28;20047;-73
2022/01/02 03:20:25;;;;;;;13.88;3.55;;;13.60;99.90;;;;;;5070329;28;20045;-75
2022/01/02 03:22:51;;;;;;;18.02;4.10;;;13.50;99.90;;;;;;5052119;28;20159;-74
2022/01/02 03:25:17;;;;;;;16.08;3.85;;;13.50;99.90;;;;;;5073606;28;20033;-74
2022/01/02 03:27:44;;;;;;;13.63;3.65;;;13.50;99.90;;;;;;5073793;28;20029;-74
2022/01/02 03:30:11;;;;;;;14.85;3.92;;;13.50;99.90;;;;;;5055598;28;20052;-74
2022/01/02 03:32:37;;;;;;;13.63;3.67;;;13.50;99.90;;;;;;5073704;28;20062;-74
2022/01/02 03:35:03;;;;;;;14.15;3.60;;;13.50;99.90;;;;;;5073559;28;20605;-73
2022/01/02 03:37:29;;;;;;;13.93;3.45;;;13.50;99.90;;;;;;5073694;28;20032;-74
2022/01/02 03:39:55;;;;;;;12.73;3.75;;;13.60;99.90;;;;;;5055596;28;20336;-72
2022/01/02 03:42:21;;;;;;;15.05;3.30;;;13.60;99.90;;;;;;5073748;28;20048;-74
2022/01/02 03:44:46;;;;;;;16.58;3.90;;;13.60;99.90;;;;;;5073729;28;20090;-74
2022/01/02 03:47:12;;;;;;;14.20;3.60;;;13.70;99.90;;;;;;5073857;28;20487;-75
2022/01/02 03:49:37;;;;;;;16.80;3.88;;;13.70;99.90;;;;;;5073592;28;20469;-76
2022/01/02 03:52:04;;;;;;;12.77;3.53;;;13.70;99.90;;;;;;5073856;28;20031;-74
2022/01/02 03:54:29;;;;;;;12.65;3.60;;;13.70;99.90;;;;;;5073985;28;20021;-74
2022/01/02 03:56:55;;;;;;;12.65;3.55;;;13.70;99.90;;;;;;5073385;28;20035;-75
2022/01/02 03:59:21;;;;;;;14.15;3.45;;;13.70;99.90;;;;;;5073612;28;20027;-75
2022/01/02 04:01:47;;;;;;;10.00;3.20;;;13.70;99.90;;;;;;5073515;28;20039;-74
2022/01/02 04:04:12;;;;;;;16.45;3.90;;;13.70;99.90;;;;;;5073106;28;20024;-74
2022/01/02 04:06:38;;;;;;;11.63;3.55;;;13.70;99.90;;;;;;5073143;28;20248;-74
2022/01/02 04:09:04;;;;;;;10.70;3.53;;;13.60;99.90;;;;;;5073042;28;20362;-74
2022/01/02 04:11:29;;;;;;;14.23;4.18;;;13.60;99.90;;;;;;5073319;28;20130;-74
2022/01/02 04:13:55;;;;;;;14.10;3.90;;;13.60;99.90;;;;;;5073473;28;20531;-74
2022/01/02 04:16:21;;;;;;;8.65;3.40;;;13.50;99.90;;;;;;5073050;28;20039;-74
2022/01/02 04:18:46;;;;;;;15.10;4.25;;;13.50;99.90;;;;;;5073466;28;20043;-74
2022/01/02 04:21:12;;;;;;;14.88;4.05;;;13.50;99.90;;;;;;5072795;28;20032;-74
2022/01/02 04:23:38;;;;;;;15.45;3.55;;;13.40;99.90;;;;;;5054650;28;20040;-74
2022/01/02 04:26:04;;;;;;;14.65;4.15;;;13.40;99.90;;;;;;5072596;28;20035;-74
2022/01/02 04:28:30;;;;;;;15.23;4.47;;;13.30;99.90;;;;;;5072841;28;20017;-74
2022/01/02 04:30:56;;;;;;;11.85;4.25;;;13.30;99.90;;;;;;5072940;28;20078;-74
2022/01/02 04:33:21;;;;;;;10.13;3.58;;;13.20;99.90;;;;;;5072922;28;20077;-74
2022/01/02 04:35:47;;;;;;;11.40;3.97;;;13.20;99.90;;;;;;5072610;28;20024;-74
2022/01/02 04:38:14;;;;;;;11.02;4.38;;;13.20;99.90;;;;;;5054734;28;20103;-74
2022/01/02 04:40:40;;;;;;;14.00;4.18;;;13.20;99.90;;;;;;5072597;28;20025;-74
2022/01/02 04:43:06;;;;;;;11.90;4.00;;;13.20;99.90;;;;;;5072778;28;20444;-74
2022/01/02 04:45:32;;;;;;;13.40;4.30;;;13.10;99.90;;;;;;5073150;28;20159;-75
2022/01/02 04:47:57;;;;;;;8.82;3.60;;;13.10;99.90;;;;;;5072459;28;20526;-75
2022/01/02 04:50:24;;;;;;;18.90;4.22;;;13.10;99.90;;;;;;5072685;28;20217;-74
2022/01/02 04:52:50;;;;;;;17.00;4.15;;;13.10;99.90;;;;;;5072496;28;20483;-75
2022/01/02 04:55:16;;;;;;;15.35;4.10;;;13.10;99.90;;;;;;5054544;28;20102;-75
2022/01/02 04:57:42;;;;;;;15.23;4.10;;;13.10;99.90;;;;;;5072876;28;20146;-74
2022/01/02 05:00:08;;;;;;;11.63;3.90;;;13.10;99.90;;;;;;5072743;28;20117;-74
2022/01/02 05:02:34;;;;;;;10.07;3.85;;;13.10;99.90;;;;;;5072339;28;20021;-74
2022/01/02 05:04:59;;;;;;;16.23;4.68;;;13.10;99.90;;;;;;5072282;28;20021;-74
2022/01/02 05:07:25;;;;;;;11.43;4.20;;;13.10;99.90;;;;;;5072527;28;20021;-75
2022/01/02 05:09:51;;;;;;;10.63;3.42;;;13.00;99.90;;;;;;5072336;28;20027;-73
2022/01/02 05:12:16;;;;;;;12.85;3.85;;;13.00;99.90;;;;;;5072328;28;20024;-74
2022/01/02 05:14:42;;;;;;;11.05;3.50;;;13.00;99.90;;;;;;5072136;28;20032;-73
2022/01/02 05:17:08;;;;;;;8.90;3.60;;;13.10;99.90;;;;;;5072197;28;20476;-74
2022/01/02 05:19:33;;;;;;;9.05;3.60;;;13.10;99.90;;;;;;5071847;28;20025;-74
2022/01/02 05:21:59;;;;;;;9.43;3.40;;;13.10;99.90;;;;;;5054195;28;20025;-73
2022/01/02 05:24:25;;;;;;;10.25;5.03;;;13.10;99.90;;;;;;5071884;28;20128;-74
2022/01/02 05:26:51;;;;;;;12.85;3.75;;;13.10;99.90;;;;;;5071982;28;20025;-74
2022/01/02 05:29:17;;;;;;;16.55;4.43;;;13.10;99.90;;;;;;5072619;28;20042;-74
2022/01/02 05:31:42;;;;;;;12.57;3.72;;;13.10;99.90;;;;;;5071495;28;20036;-74
2022/01/02 05:34:08;;;;;;;11.40;4.07;;;13.10;99.90;;;;;;5072199;28;20123;-74
2022/01/02 05:36:34;;;;;;;12.85;3.75;;;13.00;99.90;;;;;;5071326;28;20028;-74
2022/01/02 05:39:00;;;;;;;10.55;3.70;;;13.00;99.90;;;;;;5071484;28;20062;-74
2022/01/02 05:41:27;;;;;;;12.88;4.05;;;13.00;99.90;;;;;;5071685;28;20039;-74
2022/01/02 05:43:53;;;;;;;15.90;4.40;;;13.00;99.90;;;;;;5071429;28;20017;-74
2022/01/02 05:46:19;;;;;;;16.73;4.72;;;13.00;99.90;;;;;;5070985;28;20020;-74
2022/01/02 05:48:45;;;;;;;9.60;4.35;;;13.00;99.90;;;;;;5071382;28;20020;-75
2022/01/02 05:51:11;;;;;;;10.70;4.55;;;12.90;99.90;;;;;;5071338;28;20023;-75
2022/01/02 05:53:36;;;;;;;12.88;4.85;;;12.90;99.90;;;;;;5071159;28;20021;-74
2022/01/02 05:56:02;;;;;;;16.90;5.07;;;12.80;99.90;;;;;;5071468;28;20416;-74
2022/01/02 05:58:27;;;;;;;10.75;4.85;;;12.80;99.90;;;;;;5071332;28;20020;-74
2022/01/02 06:00:53;;;;;;;12.93;4.70;;;12.70;99.90;;;;;;5071114;28;20056;-74
2022/01/02 06:03:19;;;;;;;10.48;4.78;;;12.70;99.90;;;;;;5070868;28;20064;-74
2022/01/02 06:05:45;;;;;;;12.90;4.90;;;12.70;99.90;;;;;;5071045;28;20025;-74
2022/01/02 06:08:11;;;;;;;10.65;4.97;;;12.70;99.90;;;;;;5071017;28;20388;-75
2022/01/02 06:10:37;;;;;;;14.43;4.85;;;12.60;99.90;;;;;;5053159;28;20028;-74
2022/01/02 06:13:02;;;;;;;13.63;4.78;;;12.60;99.90;;;;;;5052566;28;20029;-74
2022/01/02 06:15:28;;;;;;;15.40;4.95;;;12.60;99.90;;;;;;5070974;28;20093;-74
2022/01/02 06:17:53;;;;;;;8.82;4.10;;;12.60;99.90;;;;;;5070702;28;20052;-74
2022/01/02 06:20:19;;;;;;;14.00;4.82;;;12.60;99.90;;;;;;5071291;28;20521;-74
2022/01/02 06:22:45;;;;;;;14.20;4.55;;;12.60;99.90;;;;;;5070744;28;20165;-75
2022/01/02 06:25:10;;;;;;;12.68;4.32;;;12.60;99.90;;;;;;5070827;28;20035;-74
2022/01/02 06:27:36;;;;;;;9.95;4.53;;;12.60;99.90;;;;;;5071229;28;20040;-75
2022/01/02 06:30:03;;;;;;;14.95;5.25;;;12.60;99.90;;;;;;5070677;28;20089;-74
2022/01/02 06:32:28;;;;;;;10.80;4.57;;;12.60;99.90;;;;;;5052486;28;20039;-74
2022/01/02 06:34:54;;;;;;;10.80;4.63;;;12.60;99.90;;;;;;5070824;28;20029;-74
2022/01/02 06:37:20;;;;;;;10.98;4.47;;;12.60;99.90;;;;;;5070979;28;20357;-75
2022/01/02 06:39:46;;;;;;;10.88;4.13;;;12.60;99.90;;;;;;5070702;28;20020;-75
2022/01/02 06:42:11;;;;;;;10.88;4.38;;;12.60;99.90;;;;;;5070832;28;20486;-74
2022/01/02 06:44:37;;;;;;;10.48;4.80;;;12.60;99.90;;;;;;5070160;28;20035;-75
2022/01/02 06:47:03;;;;;;;10.07;4.13;;;12.60;99.90;;;;;;5070472;28;20381;-75
2022/01/02 06:49:28;;;;;;;9.02;4.38;;;12.60;99.90;;;;;;5070533;28;20029;-74
2022/01/02 06:51:54;;;;;;;9.05;3.83;;;12.60;99.90;;;;;;5070581;28;20074;-74
2022/01/02 06:54:19;;;;;;;8.57;3.65;;;12.70;99.90;;;;;;5070505;28;20024;-73
2022/01/02 06:56:45;;;;;;;13.70;3.83;;;12.60;99.90;;;;;;5071122;28;20522;-73
2022/01/02 06:59:11;;;;;;;9.63;3.83;;;12.60;99.90;;;;;;5066388;28;20150;-74
2022/01/02 07:01:36;;;;;;;10.93;4.00;;;12.70;99.90;;;;;;5052732;28;20021;-73
2022/01/02 07:04:02;;;;;;;11.52;3.92;;;12.60;99.90;;;;;;5060708;28;20095;-74
2022/01/02 07:06:27;;;;;;;9.27;3.17;;;12.60;99.90;;;;;;5046809;28;20025;-73
2022/01/02 07:08:53;;;;;;;10.07;3.80;;;12.60;99.90;;;;;;5062268;28;20060;-74
2022/01/02 07:11:19;;;;;;;10.75;3.83;;;12.60;99.90;;;;;;5052424;28;20025;-73
2022/01/02 07:13:44;;;;;;;10.07;3.70;;;12.70;99.90;;;;;;5053238;28;20373;-74
2022/01/02 07:16:10;;;;;;;9.65;3.65;;;12.70;99.90;;;;;;5052744;28;20048;-74
2022/01/02 07:18:35;;;;;;;11.52;4.05;;;12.80;99.90;;;;;;5054590;28;20028;-73
2022/01/02 07:21:01;;;;;;;10.32;4.00;;;12.90;99.90;;;;;;5052177;28;20032;-74
2022/01/02 07:23:27;;;;;;;9.25;3.75;;;13.00;99.90;;;;;;5055906;28;20535;-74
2022/01/02 07:25:52;;;;;;;10.10;3.63;;;13.00;99.90;;;;;;5053836;28;20043;-74
2022/01/02 07:28:19;;;;;;;13.90;4.43;;;13.10;99.90;;;;;;5054098;28;20029;-74
2022/01/02 07:30:44;;;;;;;12.60;4.00;;;13.10;99.90;;;;;;5052072;28;20503;-74
2022/01/02 07:33:10;;;;;;;11.63;4.03;;;13.10;99.90;;;;;;5054300;28;20013;-75
2022/01/02 07:35:35;;;;;;;10.63;4.40;;;13.10;99.90;;;;;;5053966;28;20476;-75
2022/01/02 07:38:02;;;;;;;7.30;3.90;;;13.00;99.90;;;;;;5043289;28;20024;-75
2022/01/02 07:40:27;;;;;;;9.60;4.40;;;13.00;99.90;;;;;;5054867;28;20013;-74
2022/01/02 07:42:53;;;;;;;10.45;4.15;;;13.00;99.90;;;;;;5053311;28;20426;-77
2022/01/02 07:45:19;;;;;;;14.50;4.50;;;12.90;99.90;;;;;;5043875;28;20035;-73
2022/01/02 07:47:46;;;;;;;12.13;4.32;;;12.90;99.90;;;;;;5054478;28;20021;-75
2022/01/02 07:50:11;;;;;;;12.32;5.45;;;12.80;99.90;;;;;;5053076;28;20020;-75
2022/01/02 07:52:37;;;;;;;12.43;4.45;;;12.80;99.90;;;;;;5056419;28;20029;-74
2022/01/02 07:55:04;;;;;;;10.68;4.78;;;12.70;99.90;;;;;;5073329;28;20067;-75
2022/01/02 07:57:29;;;;;;;16.92;5.53;;;12.80;99.90;;;;;;5073290;28;20021;-75
2022/01/02 07:59:55;;;;;;;13.15;5.20;;;12.70;99.90;;;;;;5066078;28;20040;-73
2022/01/02 08:02:21;;;;;;;15.43;5.00;;;12.70;99.90;;;;;;5057976;28;20489;-73
2022/01/02 08:04:46;;;;;;;13.32;4.97;;;12.70;99.90;;;;;;5057909;28;20516;-73
2022/01/02 08:07:12;;;;;;;13.13;5.55;;;12.70;99.90;;;;;;5055773;28;20155;-73
2022/01/02 08:09:37;;;;;;;12.88;5.47;;;12.70;99.90;;;;;;5055191;28;20808;-73
2022/01/02 08:12:03;;;;;;;15.70;5.97;;;12.70;99.90;;;;;;5056050;28;20455;-73
2022/01/02 08:14:29;;;;;;;14.88;6.05;;;12.70;99.90;;;;;;5058322;28;20147;-72
2022/01/02 08:16:55;;;;;;;19.90;6.10;;;12.70;99.90;;;;;;5057082;28;20041;-74
2022/01/02 08:19:21;;;;;;;11.65;5.18;;;12.60;99.90;;;;;;5056632;28;20024;-73
2022/01/02 08:21:46;;;;;;;16.63;5.90;;;12.60;99.90;;;;;;5038369;28;20021;-73
2022/01/02 08:24:12;;;;;;;10.23;5.28;;;12.60;99.90;;;;;;5036036;28;20053;-73
2022/01/02 08:26:37;;;;;;;11.80;5.70;;;12.60;99.90;;;;;;5037256;28;20045;-74
2022/01/02 08:29:03;;;;;;;11.75;5.65;;;12.60;99.90;;;;;;5035684;28;20456;-73
2022/01/02 08:31:30;;;;;;;12.52;5.72;;;12.60;99.90;;;;;;5045589;28;20032;-74
2022/01/02 08:33:56;;;;;;;14.43;6.15;;;12.50;99.90;;;;;;5054893;28;20025;-73
2022/01/02 08:36:21;;;;;;;11.48;5.70;;;12.50;99.90;;;;;;5049208;28;20025;-72
2022/01/02 08:38:47;;;;;;;11.90;5.70;;;12.50;99.90;;;;;;5041309;28;20028;-73
2022/01/02 08:41:14;;;;;;;12.27;5.63;;;12.50;99.90;;;;;;5048966;28;20108;-73
2022/01/02 08:43:40;;;;;;;13.07;5.78;;;12.50;99.90;;;;;;5053347;28;20036;-74
2022/01/02 08:46:06;;;;;;;10.95;5.60;;;12.50;99.90;;;;;;5047999;28;20477;-73
2022/01/02 08:48:31;;;;;;;15.90;6.38;;;12.50;99.90;;;;;;5033990;28;20033;-73
2022/01/02 08:50:57;;;;;;;14.07;6.13;;;12.40;99.90;;;;;;5036318;28;20029;-71
2022/01/02 08:53:22;;;;;;;9.52;5.10;;;12.40;99.90;;;;;;5037378;28;20025;-73
2022/01/02 08:55:48;;;;;;;14.88;6.10;;;12.40;99.90;;;;;;5053155;28;20037;-74
2022/01/02 08:58:14;;;;;;;17.35;6.68;;;12.40;99.90;;;;;;5052589;28;20064;-73
2022/01/02 09:00:39;;;;;;;11.57;6.20;;;12.40;99.90;;;;;;5054077;28;20098;-74
2022/01/02 09:03:06;;;;;;;16.00;6.03;;;12.40;99.90;;;;;;5048086;28;20096;-72
2022/01/02 09:05:32;;;;;;;13.77;6.13;;;12.30;99.90;;;;;;5054071;28;20029;-72
2022/01/02 09:07:58;;;;;;;12.00;6.47;;;12.30;99.90;;;;;;5035802;28;20044;-72
2022/01/02 09:10:24;;;;;;;13.48;6.38;;;12.30;99.90;;;;;;5054841;28;20025;-73
2022/01/02 09:12:50;;;;;;;12.50;6.53;;;12.30;99.90;;;;;;5053979;28;20029;-72
2022/01/02 09:15:16;;;;;;;15.68;6.35;;;12.30;99.90;;;;;;5053470;28;20420;-72
2022/01/02 09:17:42;;;;;;;14.20;6.75;;;12.30;99.90;;;;;;5055059;28;20528;-73
2022/01/02 09:20:09;;;;;;;11.57;6.30;;;12.30;99.90;;;;;;5045139;28;20078;-72
2022/01/02 09:22:37;;;;;;;16.38;6.43;;;12.30;99.90;;;;;;5033012;28;20018;-72
2022/01/02 09:25:04;;;;;;;12.27;6.28;;;12.30;99.90;;;;;;5052165;28;20055;-72
2022/01/02 09:27:29;;;;;;;17.95;6.65;;;12.30;99.90;;;;;;5051938;28;20032;-73
2022/01/02 09:29:55;;;;;;;13.07;7.13;;;12.30;99.90;;;;;;5065844;28;20112;-73
2022/01/02 09:32:21;;;;;;;14.63;6.93;;;12.30;99.90;;;;;;5046205;28;20032;-73
2022/01/02 09:34:47;;;;;;;13.35;6.32;;;12.30;99.90;;;;;;5063637;28;20025;-72
2022/01/02 09:37:12;;;;;;;14.82;6.80;;;12.30;99.90;;;;;;5053631;28;20024;-73
2022/01/02 09:39:38;;;;;;;14.60;6.40;;;12.30;99.90;;;;;;5056080;28;20021;-74
2022/01/02 09:42:04;;;;;;;14.88;6.30;;;12.30;99.90;;;;;;5053766;28;20025;-73
2022/01/02 09:44:31;;;;;;;16.80;6.30;;;12.30;99.90;;;;;;5053358;28;20106;-74
2022/01/02 09:46:57;;;;;;;11.23;5.68;;;12.30;99.90;;;;;;5052880;28;20109;-74
2022/01/02 09:49:23;;;;;;;14.20;5.82;;;12.40;99.90;;;;;;5053868;28;20500;-72
2022/01/02 09:51:49;;;;;;;12.38;6.07;;;12.40;99.90;;;;;;5057166;28;20051;-74
2022/01/02 09:54:15;;;;;;;18.50;6.75;;;12.50;99.90;;;;;;5053223;28;20031;-75
2022/01/02 09:56:41;;;;;;;13.43;5.88;;;12.60;99.90;;;;;;5037930;28;20033;-75
2022/01/02 09:59:06;;;;;;;18.13;5.97;;;12.60;99.90;;;;;;5051676;28;20025;-74
2022/01/02 10:01:32;;;;;;;23.75;6.47;;;12.60;99.90;;;;;;5052551;28;20017;-72
2022/01/02 10:03:59;;;;;;;13.55;5.85;;;12.60;99.90;;;;;;5054070;28;20032;-70
2022/01/02 10:06:42;;;;;;;17.33;5.60;;;12.60;99.90;;;;;;5057938;28;20036;-71
2022/01/02 10:09:36;;;;;;;14.88;5.53;;;12.60;99.90;;;;;;5056714;28;20013;-71
2022/01/02 10:12:27;;;;;;;20.52;5.75;;;12.60;99.90;;;;;;5057363;28;20028;-72
2022/01/02 10:15:20;;;;;;;17.63;5.75;;;12.60;99.90;;;;;;5055801;28;20048;-71
2022/01/02 10:18:08;;;;;;;15.27;5.20;;;12.60;99.90;;;;;;5058632;28;20013;-71
2022/01/02 10:20:33;;;;;;;23.75;5.10;;;12.60;99.90;;;;;;5061979;28;20047;-73
2022/01/02 10:23:10;;;;;;;19.02;4.97;;;12.60;99.90;;;;;;5060250;28;20088;-74
2022/01/02 10:25:37;;;;;;;20.25;5.18;;;12.60;99.90;;;;;;5062019;28;20025;-74
2022/01/02 10:28:17;;;;;;;20.95;5.20;;;12.70;99.90;;;;;;5064254;28;20017;-73
2022/01/02 10:30:47;;;;;;;19.73;5.30;;;12.70;99.90;;;;;;5041219;28;20032;-73
2022/01/02 10:33:13;;;;;;;25.38;5.63;;;12.70;99.90;;;;;;5070410;28;20028;-73
2022/01/02 10:35:40;;;;;;;22.83;5.97;;;12.80;99.90;;;;;;5075686;28;20032;-73
2022/01/02 10:38:06;;;;;;;20.73;5.50;;;12.80;99.90;;;;;;5075415;28;20013;-74
2022/01/02 10:40:34;;;;;;;26.70;5.75;;;12.80;99.90;;;;;;5056759;28;20078;-73
2022/01/02 10:43:02;;;;;;;28.08;5.38;;;12.90;99.90;;;;;;5070778;28;20028;-75
2022/01/02 10:45:33;;;;;;;29.27;5.38;;;12.90;99.90;;;;;;5060371;28;20031;-73
2022/01/02 10:47:59;;;;;;;22.13;5.00;;;12.90;99.90;;;;;;5062520;28;20085;-73
2022/01/02 10:50:24;;;;;;;24.13;4.93;;;12.90;99.90;;;;;;5056644;28;20020;-73
2022/01/02 10:52:50;;;;;;;25.67;5.57;;;12.90;99.90;;;;;;5042142;28;20024;-73
2022/01/02 10:55:18;;;;;;;29.45;5.45;;;13.00;99.90;;;;;;5060343;28;20032;-73
2022/01/02 10:57:49;;;;;;;21.00;5.20;;;13.00;99.90;;;;;;5054157;28;20107;-73
2022/01/02 11:00:16;;;;;;;29.80;5.40;;;13.00;99.90;;;;;;5058609;28;20089;-74
2022/01/02 11:02:43;;;;;;;29.13;6.10;;;13.00;99.90;;;;;;5061368;28;20518;-74
2022/01/02 11:05:13;;;;;;;27.92;5.05;;;13.00;99.90;;;;;;5075692;28;20032;-74
2022/01/02 11:07:38;;;;;;;34.83;5.20;;;13.00;99.90;;;;;;5075073;28;20617;-74
2022/01/02 11:10:04;;;;;;;32.35;5.60;;;13.00;99.90;;;;;;5074683;28;20080;-74
2022/01/02 11:12:31;;;;;;;23.40;4.82;;;13.00;99.90;;;;;;5056408;28;20044;-73
2022/01/02 11:14:58;;;;;;;28.52;5.53;;;13.00;99.90;;;;;;5055395;28;20022;-74
2022/01/02 11:17:24;;;;;;;24.67;5.40;;;13.00;99.90;;;;;;5055558;28;20108;-73
2022/01/02 11:19:49;;;;;;;27.33;5.60;;;13.00;99.90;;;;;;5055109;28;20033;-74
2022/01/02 11:22:28;;;;;;;30.88;5.93;;;12.90;99.90;;;;;;5054085;28;20351;-73
2022/01/02 11:25:20;;;;;;;34.08;5.88;;;12.90;99.90;;;;;;5037422;28;20135;-74
2022/01/02 11:28:03;;;;;;;26.45;5.40;;;12.90;99.90;;;;;;5055659;28;20032;-73
2022/01/02 11:30:32;;;;;;;34.35;6.05;;;12.90;99.90;;;;;;5057402;28;20048;-74
2022/01/02 11:33:05;;;;;;;34.35;6.35;;;12.80;99.90;;;;;;5057057;28;20071;-74
2022/01/02 11:35:32;;;;;;;38.38;5.78;;;12.80;99.90;;;;;;5055516;28;20022;-74
2022/01/02 11:38:02;;;;;;;28.02;5.40;;;12.80;99.90;;;;;;5054480;28;20033;-74
2022/01/02 11:40:43;;;;;;;36.10;6.80;;;12.80;99.90;;;;;;5062418;28;20392;-73
2022/01/02 11:43:08;;;;;;;27.00;5.10;;;12.90;99.90;;;;;;5061668;28;20080;-73
2022/01/02 11:45:42;;;;;;;32.80;5.47;;;12.90;99.90;;;;;;5061335;28;20094;-74
2022/01/02 11:48:28;;;;;;;24.73;5.00;;;12.90;99.90;;;;;;5066040;28;20524;-75
2022/01/02 11:50:54;;;;;;;29.23;5.47;;;13.00;99.90;;;;;;5059962;28;20100;-74
2022/01/02 11:53:23;;;;;;;28.20;5.30;;;13.00;99.90;;;;;;5059406;28;20052;-73
2022/01/02 11:55:50;;;;;;;34.17;5.55;;;13.10;99.90;;;;;;5069061;28;20458;-74
2022/01/02 11:58:38;;;;;;;32.17;5.22;;;13.10;99.90;;;;;;5069898;28;20020;-73
2022/01/02 12:01:04;;;;;;;32.08;5.72;;;13.20;99.90;;;;;;5060666;28;20025;-74
2022/01/02 12:03:38;;;;;;;33.15;5.38;;;13.20;99.90;;;;;;5066062;28;20050;-73
2022/01/02 12:06:23;;;;;;;30.50;5.78;;;13.20;99.90;;;;;;5060766;28;20037;-73
2022/01/02 12:08:50;;;;;;;36.67;4.72;;;13.10;99.90;;;;;;5060553;28;20053;-73
2022/01/02 12:11:31;;;;;;;27.60;5.85;;;13.10;99.90;;;;;;5069112;28;20028;-73
2022/01/02 12:14:05;;;;;;;34.17;5.57;;;13.00;99.90;;;;;;5061019;28;20035;-73
2022/01/02 12:16:35;;;;;;;27.07;5.07;;;13.00;99.90;;;;;;5070898;28;20417;-73
2022/01/02 12:19:03;;;;;;;24.58;4.95;;;13.00;99.90;;;;;;5056604;28;20025;-73
2022/01/02 12:21:30;;;;;;;32.35;5.47;;;13.00;99.90;;;;;;5060063;28;20047;-73
2022/01/02 12:23:56;;;;;;;26.85;4.50;;;13.00;99.90;;;;;;5062804;28;20099;-73
2022/01/02 12:26:34;;;;;;;28.38;4.93;;;13.10;99.90;;;;;;5061613;28;20029;-73
2022/01/02 12:29:02;;;;;;;27.40;5.07;;;13.10;99.90;;;;;;5062287;28;20110;-73
2022/01/02 12:31:32;;;;;;;29.95;5.40;;;13.20;99.90;;;;;;5059678;28;20047;-72
2022/01/02 12:34:13;;;;;;;27.95;5.28;;;13.20;99.90;;;;;;5069635;28;20091;-73
2022/01/02 12:36:41;;;;;;;33.30;5.70;;;13.20;99.90;;;;;;5073220;28;20013;-74
2022/01/02 12:39:15;;;;;;;30.55;5.70;;;13.20;99.90;;;;;;5065564;28;20476;-74
2022/01/02 12:41:43;;;;;;;38.10;5.75;;;13.20;99.90;;;;;;5060297;28;20044;-74
2022/01/02 12:44:23;;;;;;;29.05;5.97;;;13.30;99.90;;;;;;5058277;28;20045;-74
2022/01/02 12:46:56;;;;;;;39.05;6.18;;;13.20;99.90;;;;;;5061663;28;20040;-74
2022/01/02 12:49:29;;;;;;;36.03;6.30;;;13.10;99.90;;;;;;5051394;28;20078;-73
2022/01/02 12:51:56;;;;;;;39.75;6.53;;;13.10;99.90;;;;;;5072515;28;20025;-73